PWSweather.com
Personal Weather Stations
Station Observations
EA5BZ
Nuevo Altabix, ElcheES

Nuevo AltabixElcheES

Lat: 38.276, Lon: -0.671

Elevation: 0

Station Type: Davis Vantage Pro 2

http://meteoelche.es

High Low Average
Temperature 68.5°F20.3°C 52.0°F11.1°C 59.3°F15.2°C
Dew Point 48.2°F9.0°C 37.1°F2.8°C 42.2°F5.7°C
Winds 18.6 mph 29.9 kmh 2.5 mph 4.0 kmh 9.0 mph WSW14.5 kmh WSW
Wind Gusts 30.9 mph49.7 kmh 3.6 mph5.8 kmh 14.0 mph22.5 kmh
Humidity 64% 46% 53%
Pressure 30.28 in1025.4 mb 30.20 in1022.7 mb -
Precipitation 0.00 in0.0 mm - -
Hour Temp Dew Point Humidity Winds Wind Gusts Pressure Precip Precip Rate Daily Precip Total
12:00 AM 53.9°F12.2°C 38.5°F3.6°C 56% 12.5 mph WSW20.1 kmh WSW 17.4 mph28.0 kmh 30.21 in1023.0 mb 0.00 in0.0 mm 0.00 in0.0 mm 0.00 in0.0 mm
12:05 AM 54.0°F12.2°C 38.6°F3.7°C 56% 12.5 mph WSW20.1 kmh WSW 15.7 mph25.3 kmh 30.21 in1023.0 mb 0.00 in0.0 mm 0.00 in0.0 mm 0.00 in0.0 mm
12:10 AM 53.8°F12.1°C 38.5°F3.6°C 56% 12.3 mph WSW19.8 kmh WSW 17.0 mph27.4 kmh 30.21 in1023.0 mb 0.00 in0.0 mm 0.00 in0.0 mm 0.00 in0.0 mm
12:15 AM 53.6°F12.0°C 38.3°F3.5°C 56% 11.6 mph WSW18.7 kmh WSW 14.8 mph23.8 kmh 30.21 in1023.0 mb 0.00 in0.0 mm 0.00 in0.0 mm 0.00 in0.0 mm
12:20 AM 53.4°F11.9°C 38.1°F3.4°C 56% 9.6 mph W15.4 kmh W 10.1 mph16.3 kmh 30.21 in1023.0 mb 0.00 in0.0 mm 0.00 in0.0 mm 0.00 in0.0 mm
12:25 AM 53.2°F11.8°C 38.0°F3.3°C 56% 8.8 mph WSW14.2 kmh WSW 11.2 mph18.0 kmh 30.22 in1023.4 mb 0.00 in0.0 mm 0.00 in0.0 mm 0.00 in0.0 mm
12:30 AM 53.2°F11.8°C 38.3°F3.5°C 57% 6.5 mph WSW10.5 kmh WSW 10.7 mph17.2 kmh 30.22 in1023.4 mb 0.00 in0.0 mm 0.00 in0.0 mm 0.00 in0.0 mm
12:35 AM 53.1°F11.7°C 38.2°F3.4°C 57% 6.3 mph WSW10.1 kmh WSW 6.9 mph11.1 kmh 30.22 in1023.4 mb 0.00 in0.0 mm 0.00 in0.0 mm 0.00 in0.0 mm
12:40 AM 53.1°F11.7°C 38.2°F3.4°C 57% 5.8 mph WSW9.3 kmh WSW 6.3 mph10.1 kmh 30.22 in1023.4 mb 0.00 in0.0 mm 0.00 in0.0 mm 0.00 in0.0 mm
12:45 AM 53.1°F11.7°C 38.2°F3.4°C 57% 5.3 mph WSW8.5 kmh WSW 5.8 mph9.3 kmh 30.22 in1023.4 mb 0.00 in0.0 mm 0.00 in0.0 mm 0.00 in0.0 mm
12:50 AM 52.9°F11.6°C 38.1°F3.4°C 57% 4.0 mph WSW6.4 kmh WSW 4.3 mph6.9 kmh 30.22 in1023.4 mb 0.00 in0.0 mm 0.00 in0.0 mm 0.00 in0.0 mm
12:55 AM 52.9°F11.6°C 38.1°F3.4°C 57% 3.7 mph WSW6.0 kmh WSW 4.7 mph7.6 kmh 30.22 in1023.4 mb 0.00 in0.0 mm 0.00 in0.0 mm 0.00 in0.0 mm
01:00 AM 52.9°F11.6°C 38.1°F3.4°C 57% 2.9 mph SW4.7 kmh SW 8.5 mph13.7 kmh 30.22 in1023.4 mb 0.00 in0.0 mm 0.00 in0.0 mm 0.00 in0.0 mm
01:05 AM 52.9°F11.6°C 38.0°F3.3°C 57% 3.6 mph WSW5.8 kmh WSW 13.0 mph20.9 kmh 30.22 in1023.4 mb 0.00 in0.0 mm 0.00 in0.0 mm 0.00 in0.0 mm
01:10 AM 52.9°F11.6°C 37.7°F3.2°C 56% 5.4 mph WSW8.7 kmh WSW 8.5 mph13.7 kmh 30.22 in1023.4 mb 0.00 in0.0 mm 0.00 in0.0 mm 0.00 in0.0 mm
01:15 AM 52.9°F11.6°C 37.6°F3.1°C 56% 5.6 mph WSW9.0 kmh WSW 9.6 mph15.4 kmh 30.21 in1023.0 mb 0.00 in0.0 mm 0.00 in0.0 mm 0.00 in0.0 mm
01:20 AM 52.9°F11.6°C 37.6°F3.1°C 56% 6.3 mph WSW10.1 kmh WSW 10.3 mph16.6 kmh 30.21 in1023.0 mb 0.00 in0.0 mm 0.00 in0.0 mm 0.00 in0.0 mm
01:25 AM 52.8°F11.6°C 37.6°F3.1°C 56% 6.0 mph WSW9.7 kmh WSW 8.1 mph13.0 kmh 30.21 in1023.0 mb 0.00 in0.0 mm 0.00 in0.0 mm 0.00 in0.0 mm
01:30 AM 52.7°F11.5°C 37.5°F3.1°C 56% 5.1 mph WSW8.2 kmh WSW 7.4 mph11.9 kmh 30.21 in1023.0 mb 0.00 in0.0 mm 0.00 in0.0 mm 0.00 in0.0 mm
01:35 AM 52.9°F11.6°C 37.6°F3.1°C 56% 5.2 mph WSW8.4 kmh WSW 9.2 mph14.8 kmh 30.21 in1023.0 mb 0.00 in0.0 mm 0.00 in0.0 mm 0.00 in0.0 mm
01:40 AM 53.0°F11.7°C 37.6°F3.1°C 56% 5.4 mph SW8.7 kmh SW 12.3 mph19.8 kmh 30.21 in1023.0 mb 0.00 in0.0 mm 0.00 in0.0 mm 0.00 in0.0 mm
01:45 AM 53.1°F11.7°C 37.6°F3.1°C 56% 5.4 mph SW8.7 kmh SW 7.4 mph11.9 kmh 30.21 in1023.0 mb 0.00 in0.0 mm 0.00 in0.0 mm 0.00 in0.0 mm
01:50 AM 52.9°F11.6°C 37.6°F3.1°C 56% 5.4 mph WSW8.7 kmh WSW 6.5 mph10.5 kmh 30.21 in1023.0 mb 0.00 in0.0 mm 0.00 in0.0 mm 0.00 in0.0 mm
01:55 AM 52.7°F11.5°C 37.4°F3.0°C 56% 5.2 mph WSW8.4 kmh WSW 13.4 mph21.6 kmh 30.21 in1023.0 mb 0.00 in0.0 mm 0.00 in0.0 mm 0.00 in0.0 mm
02:00 AM 52.5°F11.4°C 37.3°F2.9°C 56% 4.7 mph WSW7.6 kmh WSW 10.7 mph17.2 kmh 30.21 in1023.0 mb 0.00 in0.0 mm 0.00 in0.0 mm 0.00 in0.0 mm
02:05 AM 52.4°F11.3°C 37.2°F2.9°C 56% 5.0 mph WSW8.0 kmh WSW 10.7 mph17.2 kmh 30.21 in1023.0 mb 0.00 in0.0 mm 0.00 in0.0 mm 0.00 in0.0 mm
02:10 AM 52.3°F11.3°C 37.1°F2.8°C 56% 5.8 mph WSW9.3 kmh WSW 8.1 mph13.0 kmh 30.21 in1023.0 mb 0.00 in0.0 mm 0.00 in0.0 mm 0.00 in0.0 mm
02:15 AM 52.3°F11.3°C 37.3°F2.9°C 57% 5.7 mph SW9.2 kmh SW 8.7 mph14.0 kmh 30.21 in1023.0 mb 0.00 in0.0 mm 0.00 in0.0 mm 0.00 in0.0 mm
02:20 AM 52.2°F11.2°C 37.4°F3.0°C 57% 5.4 mph SW8.7 kmh SW 9.2 mph14.8 kmh 30.21 in1023.0 mb 0.00 in0.0 mm 0.00 in0.0 mm 0.00 in0.0 mm
02:25 AM 52.1°F11.2°C 37.3°F2.9°C 57% 5.6 mph SW9.0 kmh SW 10.7 mph17.2 kmh 30.21 in1023.0 mb 0.00 in0.0 mm 0.00 in0.0 mm 0.00 in0.0 mm
02:30 AM 52.0°F11.1°C 37.2°F2.9°C 57% 6.3 mph SW10.1 kmh SW 14.1 mph22.7 kmh 30.21 in1023.0 mb 0.00 in0.0 mm 0.00 in0.0 mm 0.00 in0.0 mm
02:35 AM 52.1°F11.2°C 37.1°F2.8°C 56% 6.7 mph WSW10.8 kmh WSW 19.0 mph30.6 kmh 30.21 in1023.0 mb 0.00 in0.0 mm 0.00 in0.0 mm 0.00 in0.0 mm
02:40 AM 52.3°F11.3°C 37.1°F2.8°C 56% 8.1 mph WSW13.0 kmh WSW 14.5 mph23.3 kmh 30.21 in1023.0 mb 0.00 in0.0 mm 0.00 in0.0 mm 0.00 in0.0 mm
02:45 AM 52.3°F11.3°C 37.1°F2.8°C 56% 7.6 mph WSW12.2 kmh WSW 8.7 mph14.0 kmh 30.21 in1023.0 mb 0.00 in0.0 mm 0.00 in0.0 mm 0.00 in0.0 mm
02:50 AM 52.3°F11.3°C 37.1°F2.8°C 56% 6.3 mph WSW10.1 kmh WSW 10.3 mph16.6 kmh 30.21 in1023.0 mb 0.00 in0.0 mm 0.00 in0.0 mm 0.00 in0.0 mm
02:55 AM 52.4°F11.3°C 37.1°F2.8°C 56% 6.1 mph WSW9.8 kmh WSW 16.3 mph26.2 kmh 30.22 in1023.4 mb 0.00 in0.0 mm 0.00 in0.0 mm 0.00 in0.0 mm
03:00 AM 52.5°F11.4°C 37.3°F2.9°C 56% 5.8 mph WSW9.3 kmh WSW 14.5 mph23.3 kmh 30.22 in1023.4 mb 0.00 in0.0 mm 0.00 in0.0 mm 0.00 in0.0 mm
03:05 AM 52.7°F11.5°C 37.4°F3.0°C 56% 6.4 mph WSW10.3 kmh WSW 11.2 mph18.0 kmh 30.22 in1023.4 mb 0.00 in0.0 mm 0.00 in0.0 mm 0.00 in0.0 mm
03:10 AM 52.5°F11.4°C 37.3°F2.9°C 56% 8.1 mph WSW13.0 kmh WSW 14.8 mph23.8 kmh 30.22 in1023.4 mb 0.00 in0.0 mm 0.00 in0.0 mm 0.00 in0.0 mm
03:15 AM 52.5°F11.4°C 37.3°F2.9°C 56% 7.9 mph WSW12.7 kmh WSW 11.9 mph19.2 kmh 30.22 in1023.4 mb 0.00 in0.0 mm 0.00 in0.0 mm 0.00 in0.0 mm
03:20 AM 52.5°F11.4°C 37.3°F2.9°C 56% 7.4 mph WSW11.9 kmh WSW 19.7 mph31.7 kmh 30.22 in1023.4 mb 0.00 in0.0 mm 0.00 in0.0 mm 0.00 in0.0 mm
03:25 AM 52.5°F11.4°C 37.3°F2.9°C 56% 8.0 mph WSW12.9 kmh WSW 21.9 mph35.2 kmh 30.22 in1023.4 mb 0.00 in0.0 mm 0.00 in0.0 mm 0.00 in0.0 mm
03:30 AM 52.8°F11.6°C 37.5°F3.1°C 56% 9.6 mph WSW15.4 kmh WSW 23.5 mph37.8 kmh 30.22 in1023.4 mb 0.00 in0.0 mm 0.00 in0.0 mm 0.00 in0.0 mm
03:35 AM 53.0°F11.7°C 37.7°F3.2°C 56% 10.5 mph WSW16.9 kmh WSW 30.9 mph49.7 kmh 30.22 in1023.4 mb 0.00 in0.0 mm 0.00 in0.0 mm 0.00 in0.0 mm
03:40 AM 53.1°F11.7°C 37.8°F3.2°C 56% 13.0 mph WSW20.9 kmh WSW 28.4 mph45.7 kmh 30.21 in1023.0 mb 0.00 in0.0 mm 0.00 in0.0 mm 0.00 in0.0 mm
03:45 AM 53.2°F11.8°C 38.0°F3.3°C 56% 13.5 mph WSW21.7 kmh WSW 26.2 mph42.2 kmh 30.21 in1023.0 mb 0.00 in0.0 mm 0.00 in0.0 mm 0.00 in0.0 mm
03:50 AM 53.2°F11.8°C 37.9°F3.3°C 56% 14.8 mph WSW23.8 kmh WSW 26.2 mph42.2 kmh 30.21 in1023.0 mb 0.00 in0.0 mm 0.00 in0.0 mm 0.00 in0.0 mm
03:55 AM 53.1°F11.7°C 37.8°F3.2°C 56% 13.8 mph WSW22.2 kmh WSW 17.0 mph27.4 kmh 30.21 in1023.0 mb 0.00 in0.0 mm 0.00 in0.0 mm 0.00 in0.0 mm
04:00 AM 53.1°F11.7°C 37.8°F3.2°C 56% 11.2 mph WSW18.0 kmh WSW 20.8 mph33.5 kmh 30.21 in1023.0 mb 0.00 in0.0 mm 0.00 in0.0 mm 0.00 in0.0 mm
04:05 AM 52.9°F11.6°C 37.9°F3.3°C 56% 10.9 mph WSW17.5 kmh WSW 14.8 mph23.8 kmh 30.21 in1023.0 mb 0.00 in0.0 mm 0.00 in0.0 mm 0.00 in0.0 mm
04:10 AM 52.8°F11.6°C 38.0°F3.3°C 57% 10.3 mph SW16.6 kmh SW 17.0 mph27.4 kmh 30.21 in1023.0 mb 0.00 in0.0 mm 0.00 in0.0 mm 0.00 in0.0 mm
04:15 AM 52.6°F11.4°C 37.8°F3.2°C 57% 9.7 mph SW15.6 kmh SW 13.6 mph21.9 kmh 30.21 in1023.0 mb 0.00 in0.0 mm 0.00 in0.0 mm 0.00 in0.0 mm
04:20 AM 52.5°F11.4°C 37.7°F3.2°C 57% 8.1 mph SW13.0 kmh SW 11.4 mph18.3 kmh 30.21 in1023.0 mb 0.00 in0.0 mm 0.00 in0.0 mm 0.00 in0.0 mm
04:25 AM 52.5°F11.4°C 37.7°F3.2°C 57% 7.6 mph SW12.2 kmh SW 9.6 mph15.4 kmh 30.22 in1023.4 mb 0.00 in0.0 mm 0.00 in0.0 mm 0.00 in0.0 mm
04:30 AM 52.5°F11.4°C 37.7°F3.2°C 57% 6.5 mph SW10.5 kmh SW 13.6 mph21.9 kmh 30.22 in1023.4 mb 0.00 in0.0 mm 0.00 in0.0 mm 0.00 in0.0 mm
04:35 AM 52.4°F11.3°C 37.9°F3.3°C 58% 6.8 mph SW10.9 kmh SW 14.8 mph23.8 kmh 30.22 in1023.4 mb 0.00 in0.0 mm 0.00 in0.0 mm 0.00 in0.0 mm
04:40 AM 52.3°F11.3°C 38.0°F3.3°C 58% 7.6 mph SW12.2 kmh SW 11.4 mph18.3 kmh 30.22 in1023.4 mb 0.00 in0.0 mm 0.00 in0.0 mm 0.00 in0.0 mm
04:45 AM 52.3°F11.3°C 38.0°F3.3°C 58% 7.5 mph SW12.1 kmh SW 14.1 mph22.7 kmh 30.22 in1023.4 mb 0.00 in0.0 mm 0.00 in0.0 mm 0.00 in0.0 mm
04:50 AM 52.4°F11.3°C 37.9°F3.3°C 58% 7.4 mph WSW11.9 kmh WSW 14.8 mph23.8 kmh 30.22 in1023.4 mb 0.00 in0.0 mm 0.00 in0.0 mm 0.00 in0.0 mm
04:55 AM 52.5°F11.4°C 37.7°F3.2°C 57% 7.4 mph SW11.9 kmh SW 10.3 mph16.6 kmh 30.22 in1023.4 mb 0.00 in0.0 mm 0.00 in0.0 mm 0.00 in0.0 mm
05:00 AM 52.7°F11.5°C 37.7°F3.2°C 57% 7.6 mph SW12.2 kmh SW 7.6 mph12.2 kmh 30.22 in1023.4 mb 0.00 in0.0 mm 0.00 in0.0 mm 0.00 in0.0 mm
05:05 AM 52.7°F11.5°C 37.4°F3.0°C 56% 6.5 mph SW10.5 kmh SW 7.6 mph12.2 kmh 30.22 in1023.4 mb 0.00 in0.0 mm 0.00 in0.0 mm 0.00 in0.0 mm
05:10 AM 52.7°F11.5°C 37.4°F3.0°C 56% 3.6 mph WSW5.8 kmh WSW 7.4 mph11.9 kmh 30.22 in1023.4 mb 0.00 in0.0 mm 0.00 in0.0 mm 0.00 in0.0 mm
05:15 AM 52.6°F11.4°C 37.6°F3.1°C 57% 4.0 mph WSW6.4 kmh WSW 8.1 mph13.0 kmh 30.22 in1023.4 mb 0.00 in0.0 mm 0.00 in0.0 mm 0.00 in0.0 mm
05:20 AM 52.5°F11.4°C 37.7°F3.2°C 57% 5.1 mph WSW8.2 kmh WSW 7.4 mph11.9 kmh 30.22 in1023.4 mb 0.00 in0.0 mm 0.00 in0.0 mm 0.00 in0.0 mm
05:25 AM 52.4°F11.3°C 37.6°F3.1°C 57% 5.3 mph WSW8.5 kmh WSW 7.6 mph12.2 kmh 30.22 in1023.4 mb 0.00 in0.0 mm 0.00 in0.0 mm 0.00 in0.0 mm
05:30 AM 52.3°F11.3°C 37.6°F3.1°C 57% 5.8 mph WSW9.3 kmh WSW 10.1 mph16.3 kmh 30.22 in1023.4 mb 0.00 in0.0 mm 0.00 in0.0 mm 0.00 in0.0 mm
05:35 AM 52.3°F11.3°C 37.5°F3.1°C 57% 6.1 mph WSW9.8 kmh WSW 9.2 mph14.8 kmh 30.22 in1023.4 mb 0.00 in0.0 mm 0.00 in0.0 mm 0.00 in0.0 mm
05:40 AM 52.2°F11.2°C 37.4°F3.0°C 57% 6.9 mph WSW11.1 kmh WSW 6.9 mph11.1 kmh 30.22 in1023.4 mb 0.00 in0.0 mm 0.00 in0.0 mm 0.00 in0.0 mm
05:45 AM 52.2°F11.2°C 37.4°F3.0°C 57% 6.4 mph WSW10.3 kmh WSW 10.1 mph16.3 kmh 30.22 in1023.4 mb 0.00 in0.0 mm 0.00 in0.0 mm 0.00 in0.0 mm
05:50 AM 52.2°F11.2°C 37.4°F3.0°C 57% 5.1 mph WSW8.2 kmh WSW 10.7 mph17.2 kmh 30.22 in1023.4 mb 0.00 in0.0 mm 0.00 in0.0 mm 0.00 in0.0 mm
05:55 AM 52.2°F11.2°C 37.4°F3.0°C 57% 5.8 mph WSW9.3 kmh WSW 11.9 mph19.2 kmh 30.22 in1023.4 mb 0.00 in0.0 mm 0.00 in0.0 mm 0.00 in0.0 mm
06:00 AM 52.3°F11.3°C 37.5°F3.1°C 57% 7.4 mph WSW11.9 kmh WSW 16.3 mph26.2 kmh 30.22 in1023.4 mb 0.00 in0.0 mm 0.00 in0.0 mm 0.00 in0.0 mm
06:05 AM 52.7°F11.5°C 37.4°F3.0°C 56% 8.3 mph WSW13.4 kmh WSW 15.2 mph24.5 kmh 30.22 in1023.4 mb 0.00 in0.0 mm 0.00 in0.0 mm 0.00 in0.0 mm
06:10 AM 52.9°F11.6°C 37.6°F3.1°C 56% 10.7 mph SW17.2 kmh SW 17.0 mph27.4 kmh 30.22 in1023.4 mb 0.00 in0.0 mm 0.00 in0.0 mm 0.00 in0.0 mm
06:15 AM 53.2°F11.8°C 37.4°F3.0°C 55% 11.0 mph SW17.7 kmh SW 12.5 mph20.1 kmh 30.22 in1023.4 mb 0.00 in0.0 mm 0.00 in0.0 mm 0.00 in0.0 mm
06:20 AM 53.2°F11.8°C 37.5°F3.1°C 55% 11.9 mph SW19.2 kmh SW 14.8 mph23.8 kmh 30.22 in1023.4 mb 0.00 in0.0 mm 0.00 in0.0 mm 0.00 in0.0 mm
06:25 AM 53.1°F11.7°C 37.3°F2.9°C 55% 11.0 mph SW17.7 kmh SW 13.0 mph20.9 kmh 30.22 in1023.4 mb 0.00 in0.0 mm 0.00 in0.0 mm 0.00 in0.0 mm
06:30 AM 52.9°F11.6°C 37.4°F3.0°C 55% 8.7 mph SW14.0 kmh SW 12.5 mph20.1 kmh 30.22 in1023.4 mb 0.00 in0.0 mm 0.00 in0.0 mm 0.00 in0.0 mm
06:35 AM 52.8°F11.6°C 37.6°F3.1°C 56% 8.7 mph SW14.0 kmh SW 15.2 mph24.5 kmh 30.22 in1023.4 mb 0.00 in0.0 mm 0.00 in0.0 mm 0.00 in0.0 mm
06:40 AM 52.7°F11.5°C 37.5°F3.1°C 56% 8.7 mph WSW14.0 kmh WSW 20.4 mph32.8 kmh 30.23 in1023.7 mb 0.00 in0.0 mm 0.00 in0.0 mm 0.00 in0.0 mm
06:45 AM 53.0°F11.7°C 37.5°F3.1°C 56% 10.2 mph WSW16.4 kmh WSW 23.5 mph37.8 kmh 30.23 in1023.7 mb 0.00 in0.0 mm 0.00 in0.0 mm 0.00 in0.0 mm
06:50 AM 53.4°F11.9°C 37.4°F3.0°C 54% 14.1 mph WSW22.7 kmh WSW 24.6 mph39.6 kmh 30.23 in1023.7 mb 0.00 in0.0 mm 0.00 in0.0 mm 0.00 in0.0 mm
06:55 AM 53.8°F12.1°C 37.5°F3.1°C 54% 14.6 mph WSW23.5 kmh WSW 20.8 mph33.5 kmh 30.23 in1023.7 mb 0.00 in0.0 mm 0.00 in0.0 mm 0.00 in0.0 mm
07:00 AM 54.0°F12.2°C 37.2°F2.9°C 53% 15.9 mph WSW25.6 kmh WSW 21.3 mph34.3 kmh 30.23 in1023.7 mb 0.00 in0.0 mm 0.00 in0.0 mm 0.00 in0.0 mm
07:05 AM 54.0°F12.2°C 37.2°F2.9°C 53% 15.5 mph WSW24.9 kmh WSW 19.7 mph31.7 kmh 30.23 in1023.7 mb 0.00 in0.0 mm 0.00 in0.0 mm 0.00 in0.0 mm
07:10 AM 54.0°F12.2°C 37.2°F2.9°C 53% 14.5 mph WSW23.3 kmh WSW 17.0 mph27.4 kmh 30.23 in1023.7 mb 0.00 in0.0 mm 0.00 in0.0 mm 0.00 in0.0 mm
07:15 AM 53.9°F12.2°C 37.2°F2.9°C 53% 13.6 mph WSW21.9 kmh WSW 15.9 mph25.6 kmh 30.23 in1023.7 mb 0.00 in0.0 mm 0.00 in0.0 mm 0.00 in0.0 mm
07:20 AM 53.8°F12.1°C 37.2°F2.9°C 53% 11.2 mph W18.0 kmh W 20.8 mph33.5 kmh 30.23 in1023.7 mb 0.00 in0.0 mm 0.00 in0.0 mm 0.00 in0.0 mm
07:25 AM 54.0°F12.2°C 37.2°F2.9°C 53% 11.2 mph W18.0 kmh W 17.9 mph28.8 kmh 30.23 in1023.7 mb 0.00 in0.0 mm 0.00 in0.0 mm 0.00 in0.0 mm
07:30 AM 54.0°F12.2°C 37.2°F2.9°C 53% 11.4 mph W18.3 kmh W 15.2 mph24.5 kmh 30.24 in1024.0 mb 0.00 in0.0 mm 0.00 in0.0 mm 0.00 in0.0 mm
07:35 AM 54.0°F12.2°C 37.2°F2.9°C 53% 10.6 mph W17.1 kmh W 19.7 mph31.7 kmh 30.24 in1024.0 mb 0.00 in0.0 mm 0.00 in0.0 mm 0.00 in0.0 mm
07:40 AM 54.0°F12.2°C 37.2°F2.9°C 53% 8.5 mph WSW13.7 kmh WSW 16.8 mph27.0 kmh 30.24 in1024.0 mb 0.00 in0.0 mm 0.00 in0.0 mm 0.00 in0.0 mm
07:45 AM 54.1°F12.3°C 37.4°F3.0°C 53% 9.7 mph WSW15.6 kmh WSW 27.3 mph43.9 kmh 30.24 in1024.0 mb 0.00 in0.0 mm 0.00 in0.0 mm 0.00 in0.0 mm
07:50 AM 54.2°F12.3°C 37.4°F3.0°C 53% 13.0 mph WSW20.9 kmh WSW 17.9 mph28.8 kmh 30.24 in1024.0 mb 0.00 in0.0 mm 0.00 in0.0 mm 0.00 in0.0 mm
07:55 AM 54.3°F12.4°C 37.5°F3.1°C 53% 12.9 mph WSW20.8 kmh WSW 19.7 mph31.7 kmh 30.24 in1024.0 mb 0.00 in0.0 mm 0.00 in0.0 mm 0.00 in0.0 mm
08:00 AM 54.3°F12.4°C 37.6°F3.1°C 53% 12.5 mph WSW20.1 kmh WSW 21.5 mph34.6 kmh 30.24 in1024.0 mb 0.00 in0.0 mm 0.00 in0.0 mm 0.00 in0.0 mm
08:05 AM 54.3°F12.4°C 37.6°F3.1°C 53% 12.5 mph WSW20.1 kmh WSW 18.6 mph29.9 kmh 30.24 in1024.0 mb 0.00 in0.0 mm 0.00 in0.0 mm 0.00 in0.0 mm
08:10 AM 54.3°F12.4°C 37.6°F3.1°C 53% 12.5 mph WSW20.1 kmh WSW 19.2 mph30.9 kmh 30.24 in1024.0 mb 0.00 in0.0 mm 0.00 in0.0 mm 0.00 in0.0 mm
08:15 AM 54.3°F12.4°C 37.5°F3.1°C 53% 12.3 mph WSW19.8 kmh WSW 17.4 mph28.0 kmh 30.24 in1024.0 mb 0.00 in0.0 mm 0.00 in0.0 mm 0.00 in0.0 mm
08:20 AM 54.2°F12.3°C 37.5°F3.1°C 53% 11.9 mph W19.2 kmh W 15.2 mph24.5 kmh 30.24 in1024.0 mb 0.00 in0.0 mm 0.00 in0.0 mm 0.00 in0.0 mm
08:25 AM 54.3°F12.4°C 37.8°F3.2°C 54% 10.4 mph WSW16.7 kmh WSW 11.9 mph19.2 kmh 30.25 in1024.4 mb 0.00 in0.0 mm 0.00 in0.0 mm 0.00 in0.0 mm
08:30 AM 54.1°F12.3°C 37.8°F3.2°C 54% 6.5 mph WSW10.5 kmh WSW 13.4 mph21.6 kmh 30.25 in1024.4 mb 0.00 in0.0 mm 0.00 in0.0 mm 0.00 in0.0 mm
08:35 AM 54.1°F12.3°C 37.9°F3.3°C 54% 6.7 mph WSW10.8 kmh WSW 14.5 mph23.3 kmh 30.25 in1024.4 mb 0.00 in0.0 mm 0.00 in0.0 mm 0.00 in0.0 mm
08:40 AM 54.2°F12.3°C 37.9°F3.3°C 54% 7.4 mph SW11.9 kmh SW 17.0 mph27.4 kmh 30.25 in1024.4 mb 0.00 in0.0 mm 0.00 in0.0 mm 0.00 in0.0 mm
08:45 AM 54.4°F12.4°C 37.8°F3.2°C 53% 9.0 mph WSW14.5 kmh WSW 18.6 mph29.9 kmh 30.25 in1024.4 mb 0.00 in0.0 mm 0.00 in0.0 mm 0.00 in0.0 mm
08:50 AM 54.6°F12.6°C 37.9°F3.3°C 53% 13.4 mph WSW21.6 kmh WSW 16.3 mph26.2 kmh 30.25 in1024.4 mb 0.00 in0.0 mm 0.00 in0.0 mm 0.00 in0.0 mm
08:55 AM 54.7°F12.6°C 37.9°F3.3°C 53% 13.0 mph WSW20.9 kmh WSW 15.9 mph25.6 kmh 30.26 in1024.7 mb 0.00 in0.0 mm 0.00 in0.0 mm 0.00 in0.0 mm
09:00 AM 54.9°F12.7°C 38.1°F3.4°C 53% 11.9 mph WSW19.2 kmh WSW 16.3 mph26.2 kmh 30.27 in1025.1 mb 0.00 in0.0 mm 0.00 in0.0 mm 0.00 in0.0 mm
09:05 AM 55.4°F13.0°C 38.2°F3.4°C 52% 11.6 mph WSW18.7 kmh WSW 13.4 mph21.6 kmh 30.27 in1025.1 mb 0.00 in0.0 mm 0.00 in0.0 mm 0.00 in0.0 mm
09:10 AM 55.7°F13.2°C 38.3°F3.5°C 52% 10.7 mph WSW17.2 kmh WSW 11.4 mph18.3 kmh 30.27 in1025.1 mb 0.00 in0.0 mm 0.00 in0.0 mm 0.00 in0.0 mm
09:15 AM 55.8°F13.2°C 38.5°F3.6°C 52% 10.1 mph WSW16.3 kmh WSW 15.9 mph25.6 kmh 30.27 in1025.1 mb 0.00 in0.0 mm 0.00 in0.0 mm 0.00 in0.0 mm
09:20 AM 55.9°F13.3°C 38.2°F3.4°C 51% 8.5 mph SW13.7 kmh SW 15.9 mph25.6 kmh 30.27 in1025.1 mb 0.00 in0.0 mm 0.00 in0.0 mm 0.00 in0.0 mm
09:25 AM 56.1°F13.4°C 38.2°F3.4°C 51% 9.3 mph WSW15.0 kmh WSW 15.9 mph25.6 kmh 30.27 in1025.1 mb 0.00 in0.0 mm 0.00 in0.0 mm 0.00 in0.0 mm
09:30 AM 56.5°F13.6°C 38.6°F3.7°C 51% 11.4 mph WSW18.3 kmh WSW 14.5 mph23.3 kmh 30.27 in1025.1 mb 0.00 in0.0 mm 0.00 in0.0 mm 0.00 in0.0 mm
09:35 AM 56.8°F13.8°C 38.6°F3.7°C 51% 11.0 mph WSW17.7 kmh WSW 17.4 mph28.0 kmh 30.27 in1025.1 mb 0.00 in0.0 mm 0.00 in0.0 mm 0.00 in0.0 mm
09:40 AM 57.1°F13.9°C 38.6°F3.7°C 50% 10.1 mph WSW16.3 kmh WSW 15.7 mph25.3 kmh 30.27 in1025.1 mb 0.00 in0.0 mm 0.00 in0.0 mm 0.00 in0.0 mm
09:45 AM 57.5°F14.2°C 38.8°F3.8°C 50% 9.8 mph WSW15.8 kmh WSW 15.2 mph24.5 kmh 30.27 in1025.1 mb 0.00 in0.0 mm 0.00 in0.0 mm 0.00 in0.0 mm
09:50 AM 57.8°F14.3°C 38.7°F3.7°C 49% 9.2 mph WSW14.8 kmh WSW 12.3 mph19.8 kmh 30.27 in1025.1 mb 0.00 in0.0 mm 0.00 in0.0 mm 0.00 in0.0 mm
09:55 AM 57.9°F14.4°C 38.9°F3.8°C 49% 9.1 mph WSW14.6 kmh WSW 17.0 mph27.4 kmh 30.27 in1025.1 mb 0.00 in0.0 mm 0.00 in0.0 mm 0.00 in0.0 mm
10:00 AM 58.2°F14.6°C 38.8°F3.8°C 48% 8.7 mph WSW14.0 kmh WSW 19.2 mph30.9 kmh 30.27 in1025.1 mb 0.00 in0.0 mm 0.00 in0.0 mm 0.00 in0.0 mm
10:05 AM 58.5°F14.7°C 38.9°F3.8°C 48% 9.3 mph WSW15.0 kmh WSW 17.4 mph28.0 kmh 30.27 in1025.1 mb 0.00 in0.0 mm 0.00 in0.0 mm 0.00 in0.0 mm
10:10 AM 58.8°F14.9°C 39.0°F3.9°C 48% 10.7 mph WSW17.2 kmh WSW 15.9 mph25.6 kmh 30.27 in1025.1 mb 0.00 in0.0 mm 0.00 in0.0 mm 0.00 in0.0 mm
10:15 AM 59.2°F15.1°C 39.0°F3.9°C 47% 10.2 mph WSW16.4 kmh WSW 13.4 mph21.6 kmh 30.27 in1025.1 mb 0.00 in0.0 mm 0.00 in0.0 mm 0.00 in0.0 mm
10:20 AM 59.5°F15.3°C 39.2°F4.0°C 47% 8.7 mph WSW14.0 kmh WSW 19.0 mph30.6 kmh 30.27 in1025.1 mb 0.00 in0.0 mm 0.00 in0.0 mm 0.00 in0.0 mm
10:25 AM 59.7°F15.4°C 39.0°F3.9°C 46% 9.5 mph WSW15.3 kmh WSW 23.0 mph37.0 kmh 30.27 in1025.1 mb 0.00 in0.0 mm 0.00 in0.0 mm 0.00 in0.0 mm
10:30 AM 59.7°F15.4°C 38.9°F3.8°C 46% 11.4 mph WSW18.3 kmh WSW 21.9 mph35.2 kmh 30.27 in1025.1 mb 0.00 in0.0 mm 0.00 in0.0 mm 0.00 in0.0 mm
10:35 AM 60.1°F15.6°C 39.5°F4.2°C 46% 12.0 mph WSW19.3 kmh WSW 14.8 mph23.8 kmh 30.27 in1025.1 mb 0.00 in0.0 mm 0.00 in0.0 mm 0.00 in0.0 mm
10:40 AM 60.4°F15.8°C 39.7°F4.3°C 46% 13.4 mph WSW21.6 kmh WSW 22.4 mph36.0 kmh 30.27 in1025.1 mb 0.00 in0.0 mm 0.00 in0.0 mm 0.00 in0.0 mm
10:45 AM 60.4°F15.8°C 39.6°F4.2°C 46% 13.4 mph WSW21.6 kmh WSW 26.4 mph42.5 kmh 30.27 in1025.1 mb 0.00 in0.0 mm 0.00 in0.0 mm 0.00 in0.0 mm
10:50 AM 60.4°F15.8°C 39.6°F4.2°C 46% 13.4 mph WSW21.6 kmh WSW 23.0 mph37.0 kmh 30.27 in1025.1 mb 0.00 in0.0 mm 0.00 in0.0 mm 0.00 in0.0 mm
10:55 AM 60.3°F15.7°C 39.4°F4.1°C 46% 13.9 mph WSW22.4 kmh WSW 23.5 mph37.8 kmh 30.28 in1025.4 mb 0.00 in0.0 mm 0.00 in0.0 mm 0.00 in0.0 mm
11:00 AM 60.2°F15.7°C 39.9°F4.4°C 47% 15.2 mph WSW24.5 kmh WSW 25.7 mph41.4 kmh 30.28 in1025.4 mb 0.00 in0.0 mm 0.00 in0.0 mm 0.00 in0.0 mm
11:05 AM 60.3°F15.7°C 40.0°F4.4°C 47% 15.1 mph WSW24.3 kmh WSW 27.5 mph44.3 kmh 30.28 in1025.4 mb 0.00 in0.0 mm 0.00 in0.0 mm 0.00 in0.0 mm
11:10 AM 60.4°F15.8°C 40.0°F4.4°C 47% 14.8 mph WSW23.8 kmh WSW 27.5 mph44.3 kmh 30.28 in1025.4 mb 0.00 in0.0 mm 0.00 in0.0 mm 0.00 in0.0 mm
11:15 AM 60.4°F15.8°C 40.1°F4.5°C 47% 15.4 mph WSW24.8 kmh WSW 26.2 mph42.2 kmh 30.28 in1025.4 mb 0.00 in0.0 mm 0.00 in0.0 mm 0.00 in0.0 mm
11:20 AM 60.6°F15.9°C 40.3°F4.6°C 47% 17.0 mph WSW27.4 kmh WSW 29.1 mph46.8 kmh 30.28 in1025.4 mb 0.00 in0.0 mm 0.00 in0.0 mm 0.00 in0.0 mm
11:25 AM 60.8°F16.0°C 40.3°F4.6°C 47% 17.0 mph WSW27.4 kmh WSW 29.1 mph46.8 kmh 30.28 in1025.4 mb 0.00 in0.0 mm 0.00 in0.0 mm 0.00 in0.0 mm
11:30 AM 60.9°F16.1°C 40.0°F4.4°C 46% 17.0 mph W27.4 kmh W 24.2 mph38.9 kmh 30.28 in1025.4 mb 0.00 in0.0 mm 0.00 in0.0 mm 0.00 in0.0 mm
11:35 AM 61.1°F16.2°C 40.5°F4.7°C 47% 17.0 mph W27.4 kmh W 28.0 mph45.1 kmh 30.28 in1025.4 mb 0.00 in0.0 mm 0.00 in0.0 mm 0.00 in0.0 mm
11:40 AM 61.3°F16.3°C 40.4°F4.7°C 46% 17.0 mph W27.4 kmh W 25.7 mph41.4 kmh 30.28 in1025.4 mb 0.00 in0.0 mm 0.00 in0.0 mm 0.00 in0.0 mm
11:45 AM 61.5°F16.4°C 40.5°F4.7°C 46% 17.4 mph W28.0 kmh W 30.2 mph48.6 kmh 30.27 in1025.1 mb 0.00 in0.0 mm 0.00 in0.0 mm 0.00 in0.0 mm
11:50 AM 61.7°F16.5°C 40.8°F4.9°C 46% 18.6 mph W29.9 kmh W 23.5 mph37.8 kmh 30.27 in1025.1 mb 0.00 in0.0 mm 0.00 in0.0 mm 0.00 in0.0 mm
11:55 AM 62.0°F16.7°C 41.0°F5.0°C 46% 17.1 mph W27.5 kmh W 18.6 mph29.9 kmh 30.27 in1025.1 mb 0.00 in0.0 mm 0.00 in0.0 mm 0.00 in0.0 mm
12:00 PM 62.0°F16.7°C 41.1°F5.1°C 46% 13.0 mph WSW20.9 kmh WSW 13.0 mph20.9 kmh 30.27 in1025.1 mb 0.00 in0.0 mm 0.00 in0.0 mm 0.00 in0.0 mm
12:05 PM 61.4°F16.3°C 40.8°F4.9°C 47% 11.5 mph WSW18.5 kmh WSW 14.5 mph23.3 kmh 30.27 in1025.1 mb 0.00 in0.0 mm 0.00 in0.0 mm 0.00 in0.0 mm
12:10 PM 60.9°F16.1°C 40.8°F4.9°C 47% 7.6 mph SSW12.2 kmh SSW 14.1 mph22.7 kmh 30.27 in1025.1 mb 0.00 in0.0 mm 0.00 in0.0 mm 0.00 in0.0 mm
12:15 PM 60.6°F15.9°C 40.6°F4.8°C 48% 8.3 mph SSW13.4 kmh SSW 14.1 mph22.7 kmh 30.27 in1025.1 mb 0.00 in0.0 mm 0.00 in0.0 mm 0.00 in0.0 mm
12:20 PM 60.7°F15.9°C 40.9°F4.9°C 48% 10.3 mph SW16.6 kmh SW 13.4 mph21.6 kmh 30.27 in1025.1 mb 0.00 in0.0 mm 0.00 in0.0 mm 0.00 in0.0 mm
12:25 PM 61.1°F16.2°C 40.7°F4.8°C 47% 9.9 mph SW15.9 kmh SW 14.1 mph22.7 kmh 30.27 in1025.1 mb 0.00 in0.0 mm 0.00 in0.0 mm 0.00 in0.0 mm
12:30 PM 61.1°F16.2°C 40.5°F4.7°C 47% 8.7 mph SW14.0 kmh SW 15.9 mph25.6 kmh 30.26 in1024.7 mb 0.00 in0.0 mm 0.00 in0.0 mm 0.00 in0.0 mm
12:35 PM 61.2°F16.2°C 40.8°F4.9°C 47% 9.1 mph SW14.6 kmh SW 12.5 mph20.1 kmh 30.26 in1024.7 mb 0.00 in0.0 mm 0.00 in0.0 mm 0.00 in0.0 mm
12:40 PM 61.5°F16.4°C 41.5°F5.3°C 48% 10.3 mph SW16.6 kmh SW 10.3 mph16.6 kmh 30.26 in1024.7 mb 0.00 in0.0 mm 0.00 in0.0 mm 0.00 in0.0 mm
12:45 PM 61.9°F16.6°C 41.3°F5.2°C 47% 9.2 mph SW14.8 kmh SW 10.7 mph17.2 kmh 30.26 in1024.7 mb 0.00 in0.0 mm 0.00 in0.0 mm 0.00 in0.0 mm
12:50 PM 62.1°F16.7°C 41.2°F5.1°C 46% 6.3 mph SW10.1 kmh SW 10.7 mph17.2 kmh 30.26 in1024.7 mb 0.00 in0.0 mm 0.00 in0.0 mm 0.00 in0.0 mm
12:55 PM 62.3°F16.8°C 41.4°F5.2°C 46% 6.6 mph SW10.6 kmh SW 10.3 mph16.6 kmh 30.26 in1024.7 mb 0.00 in0.0 mm 0.00 in0.0 mm 0.00 in0.0 mm
01:00 PM 62.6°F17.0°C 41.5°F5.3°C 46% 7.4 mph SSW11.9 kmh SSW 9.6 mph15.4 kmh 30.26 in1024.7 mb 0.00 in0.0 mm 0.00 in0.0 mm 0.00 in0.0 mm
01:05 PM 62.5°F16.9°C 41.4°F5.2°C 46% 7.1 mph SSW11.4 kmh SSW 12.5 mph20.1 kmh 30.26 in1024.7 mb 0.00 in0.0 mm 0.00 in0.0 mm 0.00 in0.0 mm
01:10 PM 62.4°F16.9°C 42.0°F5.6°C 47% 6.5 mph S10.5 kmh S 16.8 mph27.0 kmh 30.25 in1024.4 mb 0.00 in0.0 mm 0.00 in0.0 mm 0.00 in0.0 mm
01:15 PM 63.1°F17.3°C 42.5°F5.8°C 47% 7.5 mph S12.1 kmh S 18.6 mph29.9 kmh 30.25 in1024.4 mb 0.00 in0.0 mm 0.00 in0.0 mm 0.00 in0.0 mm
01:20 PM 63.7°F17.6°C 43.2°F6.2°C 47% 10.3 mph S16.6 kmh S 21.9 mph35.2 kmh 30.25 in1024.4 mb 0.00 in0.0 mm 0.00 in0.0 mm 0.00 in0.0 mm
01:25 PM 64.2°F17.9°C 43.5°F6.4°C 47% 10.4 mph SSW16.7 kmh SSW 19.0 mph30.6 kmh 30.24 in1024.0 mb 0.00 in0.0 mm 0.00 in0.0 mm 0.00 in0.0 mm
01:30 PM 64.7°F18.2°C 44.0°F6.7°C 47% 10.7 mph WSW17.2 kmh WSW 15.7 mph25.3 kmh 30.24 in1024.0 mb 0.00 in0.0 mm 0.00 in0.0 mm 0.00 in0.0 mm
01:35 PM 65.0°F18.3°C 44.1°F6.7°C 47% 10.0 mph WSW16.1 kmh WSW 19.0 mph30.6 kmh 30.24 in1024.0 mb 0.00 in0.0 mm 0.00 in0.0 mm 0.00 in0.0 mm
01:40 PM 65.2°F18.4°C 44.5°F6.9°C 47% 8.1 mph W13.0 kmh W 15.7 mph25.3 kmh 30.23 in1023.7 mb 0.00 in0.0 mm 0.00 in0.0 mm 0.00 in0.0 mm
01:45 PM 65.5°F18.6°C 44.8°F7.1°C 47% 8.2 mph WSW13.2 kmh WSW 17.9 mph28.8 kmh 30.23 in1023.7 mb 0.00 in0.0 mm 0.00 in0.0 mm 0.00 in0.0 mm
01:50 PM 65.7°F18.7°C 44.9°F7.2°C 47% 8.7 mph WSW14.0 kmh WSW 18.1 mph29.1 kmh 30.23 in1023.7 mb 0.00 in0.0 mm 0.00 in0.0 mm 0.00 in0.0 mm
01:55 PM 65.8°F18.8°C 45.0°F7.2°C 47% 9.8 mph WSW15.8 kmh WSW 21.3 mph34.3 kmh 30.22 in1023.4 mb 0.00 in0.0 mm 0.00 in0.0 mm 0.00 in0.0 mm
02:00 PM 65.9°F18.8°C 45.1°F7.3°C 47% 12.5 mph WSW20.1 kmh WSW 17.9 mph28.8 kmh 30.22 in1023.4 mb 0.00 in0.0 mm 0.00 in0.0 mm 0.00 in0.0 mm
02:05 PM 66.1°F18.9°C 45.3°F7.4°C 47% 12.3 mph WSW19.8 kmh WSW 21.9 mph35.2 kmh 30.22 in1023.4 mb 0.00 in0.0 mm 0.00 in0.0 mm 0.00 in0.0 mm
02:10 PM 65.9°F18.8°C 45.1°F7.3°C 47% 11.9 mph WSW19.2 kmh WSW 21.5 mph34.6 kmh 30.22 in1023.4 mb 0.00 in0.0 mm 0.00 in0.0 mm 0.00 in0.0 mm
02:15 PM 65.7°F18.7°C 44.9°F7.2°C 47% 12.6 mph WSW20.3 kmh WSW 18.1 mph29.1 kmh 30.21 in1023.0 mb 0.00 in0.0 mm 0.00 in0.0 mm 0.00 in0.0 mm
02:20 PM 65.8°F18.8°C 45.2°F7.3°C 47% 14.8 mph W23.8 kmh W 15.9 mph25.6 kmh 30.21 in1023.0 mb 0.00 in0.0 mm 0.00 in0.0 mm 0.00 in0.0 mm
02:25 PM 66.0°F18.9°C 45.3°F7.4°C 47% 13.4 mph W21.6 kmh W 15.2 mph24.5 kmh 30.21 in1023.0 mb 0.00 in0.0 mm 0.00 in0.0 mm 0.00 in0.0 mm
02:30 PM 66.4°F19.1°C 45.6°F7.6°C 47% 9.6 mph W15.4 kmh W 15.7 mph25.3 kmh 30.21 in1023.0 mb 0.00 in0.0 mm 0.00 in0.0 mm 0.00 in0.0 mm
02:35 PM 66.6°F19.2°C 45.3°F7.4°C 46% 9.4 mph W15.1 kmh W 15.2 mph24.5 kmh 30.21 in1023.0 mb 0.00 in0.0 mm 0.00 in0.0 mm 0.00 in0.0 mm
02:40 PM 66.8°F19.3°C 45.4°F7.4°C 46% 8.7 mph W14.0 kmh W 14.1 mph22.7 kmh 30.21 in1023.0 mb 0.00 in0.0 mm 0.00 in0.0 mm 0.00 in0.0 mm
02:45 PM 66.9°F19.4°C 45.5°F7.5°C 46% 8.5 mph W13.7 kmh W 14.5 mph23.3 kmh 30.21 in1023.0 mb 0.00 in0.0 mm 0.00 in0.0 mm 0.00 in0.0 mm
02:50 PM 66.9°F19.4°C 45.5°F7.5°C 46% 8.1 mph W13.0 kmh W 14.1 mph22.7 kmh 30.21 in1023.0 mb 0.00 in0.0 mm 0.00 in0.0 mm 0.00 in0.0 mm
02:55 PM 66.9°F19.4°C 45.5°F7.5°C 46% 7.6 mph W12.2 kmh W 13.6 mph21.9 kmh 30.21 in1023.0 mb 0.00 in0.0 mm 0.00 in0.0 mm 0.00 in0.0 mm
03:00 PM 67.2°F19.6°C 45.7°F7.6°C 46% 6.5 mph W10.5 kmh W 15.9 mph25.6 kmh 30.21 in1023.0 mb 0.00 in0.0 mm 0.00 in0.0 mm 0.00 in0.0 mm
03:05 PM 67.3°F19.6°C 45.8°F7.7°C 46% 6.8 mph W10.9 kmh W 14.5 mph23.3 kmh 30.21 in1023.0 mb 0.00 in0.0 mm 0.00 in0.0 mm 0.00 in0.0 mm
03:10 PM 67.3°F19.6°C 45.8°F7.7°C 46% 7.6 mph W12.2 kmh W 10.1 mph16.3 kmh 30.20 in1022.7 mb 0.00 in0.0 mm 0.00 in0.0 mm 0.00 in0.0 mm
03:15 PM 67.5°F19.7°C 45.9°F7.7°C 46% 7.1 mph W11.4 kmh W 12.3 mph19.8 kmh 30.20 in1022.7 mb 0.00 in0.0 mm 0.00 in0.0 mm 0.00 in0.0 mm
03:20 PM 67.6°F19.8°C 46.0°F7.8°C 46% 5.8 mph W9.3 kmh W 11.9 mph19.2 kmh 30.20 in1022.7 mb 0.00 in0.0 mm 0.00 in0.0 mm 0.00 in0.0 mm
03:25 PM 67.8°F19.9°C 46.3°F7.9°C 46% 6.1 mph W9.8 kmh W 12.5 mph20.1 kmh 30.20 in1022.7 mb 0.00 in0.0 mm 0.00 in0.0 mm 0.00 in0.0 mm
03:30 PM 68.1°F20.1°C 46.6°F8.1°C 46% 6.9 mph W11.1 kmh W 11.4 mph18.3 kmh 30.20 in1022.7 mb 0.00 in0.0 mm 0.00 in0.0 mm 0.00 in0.0 mm
03:35 PM 68.2°F20.1°C 46.7°F8.2°C 46% 6.8 mph W10.9 kmh W 12.5 mph20.1 kmh 30.20 in1022.7 mb 0.00 in0.0 mm 0.00 in0.0 mm 0.00 in0.0 mm
03:40 PM 68.2°F20.1°C 46.6°F8.1°C 46% 6.5 mph W10.5 kmh W 10.7 mph17.2 kmh 30.20 in1022.7 mb 0.00 in0.0 mm 0.00 in0.0 mm 0.00 in0.0 mm
03:45 PM 68.2°F20.1°C 46.6°F8.1°C 46% 6.7 mph W10.8 kmh W 12.3 mph19.8 kmh 30.20 in1022.7 mb 0.00 in0.0 mm 0.00 in0.0 mm 0.00 in0.0 mm
03:50 PM 68.4°F20.2°C 46.8°F8.2°C 46% 7.4 mph WSW11.9 kmh WSW 10.3 mph16.6 kmh 30.20 in1022.7 mb 0.00 in0.0 mm 0.00 in0.0 mm 0.00 in0.0 mm
03:55 PM 68.4°F20.2°C 46.8°F8.2°C 46% 7.1 mph WSW11.4 kmh WSW 10.3 mph16.6 kmh 30.20 in1022.7 mb 0.00 in0.0 mm 0.00 in0.0 mm 0.00 in0.0 mm
04:00 PM 68.5°F20.3°C 46.9°F8.3°C 46% 6.5 mph WSW10.5 kmh WSW 14.1 mph22.7 kmh 30.21 in1023.0 mb 0.00 in0.0 mm 0.00 in0.0 mm 0.00 in0.0 mm
04:05 PM 68.3°F20.2°C 46.8°F8.2°C 46% 6.9 mph WSW11.1 kmh WSW 10.7 mph17.2 kmh 30.21 in1023.0 mb 0.00 in0.0 mm 0.00 in0.0 mm 0.00 in0.0 mm
04:10 PM 67.9°F19.9°C 46.9°F8.3°C 47% 8.1 mph WSW13.0 kmh WSW 9.6 mph15.4 kmh 30.21 in1023.0 mb 0.00 in0.0 mm 0.00 in0.0 mm 0.00 in0.0 mm
04:15 PM 67.6°F19.8°C 46.9°F8.3°C 47% 7.4 mph WSW11.9 kmh WSW 9.2 mph14.8 kmh 30.21 in1023.0 mb 0.00 in0.0 mm 0.00 in0.0 mm 0.00 in0.0 mm
04:20 PM 67.5°F19.7°C 47.1°F8.4°C 48% 5.8 mph W9.3 kmh W 9.6 mph15.4 kmh 30.21 in1023.0 mb 0.00 in0.0 mm 0.00 in0.0 mm 0.00 in0.0 mm
04:25 PM 67.4°F19.7°C 47.1°F8.4°C 48% 5.8 mph W9.3 kmh W 12.3 mph19.8 kmh 30.21 in1023.0 mb 0.00 in0.0 mm 0.00 in0.0 mm 0.00 in0.0 mm
04:30 PM 67.5°F19.7°C 47.3°F8.5°C 48% 5.8 mph WSW9.3 kmh WSW 10.1 mph16.3 kmh 30.21 in1023.0 mb 0.00 in0.0 mm 0.00 in0.0 mm 0.00 in0.0 mm
04:35 PM 67.6°F19.8°C 47.5°F8.6°C 49% 6.0 mph WSW9.7 kmh WSW 10.1 mph16.3 kmh 30.21 in1023.0 mb 0.00 in0.0 mm 0.00 in0.0 mm 0.00 in0.0 mm
04:40 PM 67.4°F19.7°C 47.6°F8.7°C 49% 6.5 mph W10.5 kmh W 8.7 mph14.0 kmh 30.20 in1022.7 mb 0.00 in0.0 mm 0.00 in0.0 mm 0.00 in0.0 mm
04:45 PM 67.2°F19.6°C 47.4°F8.6°C 49% 6.6 mph WSW10.6 kmh WSW 11.9 mph19.2 kmh 30.20 in1022.7 mb 0.00 in0.0 mm 0.00 in0.0 mm 0.00 in0.0 mm
04:50 PM 67.1°F19.5°C 47.3°F8.5°C 49% 6.9 mph WSW11.1 kmh WSW 9.6 mph15.4 kmh 30.20 in1022.7 mb 0.00 in0.0 mm 0.00 in0.0 mm 0.00 in0.0 mm
04:55 PM 67.0°F19.4°C 47.2°F8.4°C 49% 6.8 mph WSW10.9 kmh WSW 9.6 mph15.4 kmh 30.20 in1022.7 mb 0.00 in0.0 mm 0.00 in0.0 mm 0.00 in0.0 mm
05:00 PM 67.1°F19.5°C 47.3°F8.5°C 49% 6.3 mph SW10.1 kmh SW 6.3 mph10.1 kmh 30.20 in1022.7 mb 0.00 in0.0 mm 0.00 in0.0 mm 0.00 in0.0 mm
05:05 PM 67.4°F19.7°C 47.6°F8.7°C 49% 5.5 mph SW8.9 kmh SW 7.4 mph11.9 kmh 30.20 in1022.7 mb 0.00 in0.0 mm 0.00 in0.0 mm 0.00 in0.0 mm
05:10 PM 67.6°F19.8°C 47.2°F8.4°C 48% 3.6 mph SW5.8 kmh SW 11.4 mph18.3 kmh 30.20 in1022.7 mb 0.00 in0.0 mm 0.00 in0.0 mm 0.00 in0.0 mm
05:15 PM 67.6°F19.8°C 47.7°F8.7°C 49% 4.4 mph SW7.1 kmh SW 11.9 mph19.2 kmh 30.21 in1023.0 mb 0.00 in0.0 mm 0.00 in0.0 mm 0.00 in0.0 mm
05:20 PM 67.4°F19.7°C 47.5°F8.6°C 49% 6.5 mph SW10.5 kmh SW 10.1 mph16.3 kmh 30.21 in1023.0 mb 0.00 in0.0 mm 0.00 in0.0 mm 0.00 in0.0 mm
05:25 PM 67.2°F19.6°C 47.3°F8.5°C 49% 6.8 mph SW10.9 kmh SW 11.9 mph19.2 kmh 30.20 in1022.7 mb 0.00 in0.0 mm 0.00 in0.0 mm 0.00 in0.0 mm
05:30 PM 66.9°F19.4°C 47.5°F8.6°C 50% 7.6 mph SW12.2 kmh SW 10.1 mph16.3 kmh 30.20 in1022.7 mb 0.00 in0.0 mm 0.00 in0.0 mm 0.00 in0.0 mm
05:35 PM 66.7°F19.3°C 47.4°F8.6°C 50% 7.8 mph SW12.6 kmh SW 14.1 mph22.7 kmh 30.20 in1022.7 mb 0.00 in0.0 mm 0.00 in0.0 mm 0.00 in0.0 mm
05:40 PM 66.4°F19.1°C 47.2°F8.4°C 50% 8.5 mph WSW13.7 kmh WSW 14.8 mph23.8 kmh 30.20 in1022.7 mb 0.00 in0.0 mm 0.00 in0.0 mm 0.00 in0.0 mm
05:45 PM 66.3°F19.1°C 47.2°F8.4°C 50% 8.9 mph WSW14.3 kmh WSW 13.4 mph21.6 kmh 30.20 in1022.7 mb 0.00 in0.0 mm 0.00 in0.0 mm 0.00 in0.0 mm
05:50 PM 66.1°F18.9°C 47.4°F8.6°C 51% 10.1 mph WSW16.3 kmh WSW 13.4 mph21.6 kmh 30.20 in1022.7 mb 0.00 in0.0 mm 0.00 in0.0 mm 0.00 in0.0 mm
05:55 PM 66.0°F18.9°C 47.3°F8.5°C 51% 9.6 mph WSW15.4 kmh WSW 10.7 mph17.2 kmh 30.20 in1022.7 mb 0.00 in0.0 mm 0.00 in0.0 mm 0.00 in0.0 mm
06:00 PM 65.8°F18.8°C 47.2°F8.4°C 51% 8.5 mph WSW13.7 kmh WSW 10.7 mph17.2 kmh 30.21 in1023.0 mb 0.00 in0.0 mm 0.00 in0.0 mm 0.00 in0.0 mm
06:05 PM 65.7°F18.7°C 47.2°F8.4°C 51% 8.6 mph WSW13.8 kmh WSW 16.8 mph27.0 kmh 30.21 in1023.0 mb 0.00 in0.0 mm 0.00 in0.0 mm 0.00 in0.0 mm
06:10 PM 65.6°F18.7°C 47.5°F8.6°C 52% 8.7 mph WSW14.0 kmh WSW 14.5 mph23.3 kmh 30.21 in1023.0 mb 0.00 in0.0 mm 0.00 in0.0 mm 0.00 in0.0 mm
06:15 PM 65.5°F18.6°C 47.4°F8.6°C 52% 8.7 mph WSW14.0 kmh WSW 15.2 mph24.5 kmh 30.21 in1023.0 mb 0.00 in0.0 mm 0.00 in0.0 mm 0.00 in0.0 mm
06:20 PM 65.4°F18.6°C 47.3°F8.5°C 52% 8.7 mph WSW14.0 kmh WSW 14.5 mph23.3 kmh 30.21 in1023.0 mb 0.00 in0.0 mm 0.00 in0.0 mm 0.00 in0.0 mm
06:25 PM 65.3°F18.5°C 47.2°F8.4°C 52% 9.0 mph W14.5 kmh W 14.5 mph23.3 kmh 30.21 in1023.0 mb 0.00 in0.0 mm 0.00 in0.0 mm 0.00 in0.0 mm
06:30 PM 65.2°F18.4°C 47.2°F8.4°C 52% 9.6 mph W15.4 kmh W 9.6 mph15.4 kmh 30.21 in1023.0 mb 0.00 in0.0 mm 0.00 in0.0 mm 0.00 in0.0 mm
06:35 PM 65.1°F18.4°C 47.5°F8.6°C 53% 8.5 mph W13.7 kmh W 9.6 mph15.4 kmh 30.21 in1023.0 mb 0.00 in0.0 mm 0.00 in0.0 mm 0.00 in0.0 mm
06:40 PM 64.8°F18.2°C 47.4°F8.6°C 53% 5.4 mph NW8.7 kmh NW 11.2 mph18.0 kmh 30.21 in1023.0 mb 0.00 in0.0 mm 0.00 in0.0 mm 0.00 in0.0 mm
06:45 PM 64.7°F18.2°C 47.6°F8.7°C 54% 5.6 mph NW9.0 kmh NW 8.7 mph14.0 kmh 30.21 in1023.0 mb 0.00 in0.0 mm 0.00 in0.0 mm 0.00 in0.0 mm
06:50 PM 64.4°F18.0°C 47.5°F8.6°C 54% 6.3 mph NW10.1 kmh NW 8.5 mph13.7 kmh 30.21 in1023.0 mb 0.00 in0.0 mm 0.00 in0.0 mm 0.00 in0.0 mm
06:55 PM 64.1°F17.8°C 47.6°F8.7°C 55% 6.0 mph WNW9.7 kmh WNW 6.9 mph11.1 kmh 30.22 in1023.4 mb 0.00 in0.0 mm 0.00 in0.0 mm 0.00 in0.0 mm
07:00 PM 63.8°F17.7°C 47.5°F8.6°C 55% 5.4 mph WSW8.7 kmh WSW 7.6 mph12.2 kmh 30.22 in1023.4 mb 0.00 in0.0 mm 0.00 in0.0 mm 0.00 in0.0 mm
07:05 PM 63.7°F17.6°C 47.7°F8.7°C 56% 5.5 mph WSW8.9 kmh WSW 8.1 mph13.0 kmh 30.22 in1023.4 mb 0.00 in0.0 mm 0.00 in0.0 mm 0.00 in0.0 mm
07:10 PM 63.6°F17.6°C 47.6°F8.7°C 56% 5.8 mph WSW9.3 kmh WSW 6.3 mph10.1 kmh 30.22 in1023.4 mb 0.00 in0.0 mm 0.00 in0.0 mm 0.00 in0.0 mm
07:15 PM 63.5°F17.5°C 47.5°F8.6°C 56% 5.3 mph WSW8.5 kmh WSW 5.8 mph9.3 kmh 30.22 in1023.4 mb 0.00 in0.0 mm 0.00 in0.0 mm 0.00 in0.0 mm
07:20 PM 63.5°F17.5°C 47.5°F8.6°C 56% 4.0 mph WSW6.4 kmh WSW 4.3 mph6.9 kmh 30.22 in1023.4 mb 0.00 in0.0 mm 0.00 in0.0 mm 0.00 in0.0 mm
07:25 PM 63.4°F17.4°C 47.4°F8.6°C 56% 3.9 mph WSW6.3 kmh WSW 6.9 mph11.1 kmh 30.22 in1023.4 mb 0.00 in0.0 mm 0.00 in0.0 mm 0.00 in0.0 mm
07:30 PM 63.3°F17.4°C 47.4°F8.6°C 56% 3.6 mph WSW5.8 kmh WSW 7.6 mph12.2 kmh 30.22 in1023.4 mb 0.00 in0.0 mm 0.00 in0.0 mm 0.00 in0.0 mm
07:35 PM 63.4°F17.4°C 47.4°F8.6°C 56% 4.2 mph W6.8 kmh W 6.5 mph10.5 kmh 30.22 in1023.4 mb 0.00 in0.0 mm 0.00 in0.0 mm 0.00 in0.0 mm
07:40 PM 63.5°F17.5°C 47.5°F8.6°C 56% 5.8 mph W9.3 kmh W 5.8 mph9.3 kmh 30.23 in1023.7 mb 0.00 in0.0 mm 0.00 in0.0 mm 0.00 in0.0 mm
07:45 PM 63.5°F17.5°C 47.6°F8.7°C 56% 5.3 mph W8.5 kmh W 6.3 mph10.1 kmh 30.23 in1023.7 mb 0.00 in0.0 mm 0.00 in0.0 mm 0.00 in0.0 mm
07:50 PM 63.5°F17.5°C 48.0°F8.9°C 57% 4.0 mph WNW6.4 kmh WNW 4.7 mph7.6 kmh 30.23 in1023.7 mb 0.00 in0.0 mm 0.00 in0.0 mm 0.00 in0.0 mm
07:55 PM 63.5°F17.5°C 48.0°F8.9°C 57% 3.9 mph WNW6.3 kmh WNW 5.1 mph8.2 kmh 30.23 in1023.7 mb 0.00 in0.0 mm 0.00 in0.0 mm 0.00 in0.0 mm
08:00 PM 63.3°F17.4°C 47.8°F8.8°C 57% 3.6 mph W5.8 kmh W 4.0 mph6.4 kmh 30.22 in1023.4 mb 0.00 in0.0 mm 0.00 in0.0 mm 0.00 in0.0 mm
08:05 PM 63.3°F17.4°C 47.8°F8.8°C 57% 3.3 mph W5.3 kmh W 3.6 mph5.8 kmh 30.22 in1023.4 mb 0.00 in0.0 mm 0.00 in0.0 mm 0.00 in0.0 mm
08:10 PM 63.3°F17.4°C 47.8°F8.8°C 57% 2.5 mph WSW4.0 kmh WSW 5.4 mph8.7 kmh 30.22 in1023.4 mb 0.00 in0.0 mm 0.00 in0.0 mm 0.00 in0.0 mm
08:15 PM 63.3°F17.4°C 47.8°F8.8°C 57% 2.6 mph WSW4.2 kmh WSW 9.2 mph14.8 kmh 30.22 in1023.4 mb 0.00 in0.0 mm 0.00 in0.0 mm 0.00 in0.0 mm
08:20 PM 63.2°F17.3°C 47.9°F8.8°C 58% 3.1 mph WSW5.0 kmh WSW 5.8 mph9.3 kmh 30.22 in1023.4 mb 0.00 in0.0 mm 0.00 in0.0 mm 0.00 in0.0 mm
08:25 PM 63.1°F17.3°C 47.8°F8.8°C 57% 3.3 mph WSW5.3 kmh WSW 4.7 mph7.6 kmh 30.23 in1023.7 mb 0.00 in0.0 mm 0.00 in0.0 mm 0.00 in0.0 mm
08:30 PM 63.1°F17.3°C 48.1°F8.9°C 58% 3.6 mph NW5.8 kmh NW 5.4 mph8.7 kmh 30.23 in1023.7 mb 0.00 in0.0 mm 0.00 in0.0 mm 0.00 in0.0 mm
08:35 PM 63.1°F17.3°C 48.1°F8.9°C 58% 3.8 mph WNW6.1 kmh WNW 11.4 mph18.3 kmh 30.23 in1023.7 mb 0.00 in0.0 mm 0.00 in0.0 mm 0.00 in0.0 mm
08:40 PM 62.9°F17.2°C 48.0°F8.9°C 58% 4.3 mph WSW6.9 kmh WSW 16.3 mph26.2 kmh 30.23 in1023.7 mb 0.00 in0.0 mm 0.00 in0.0 mm 0.00 in0.0 mm
08:45 PM 62.7°F17.1°C 48.2°F9.0°C 59% 6.1 mph WSW9.8 kmh WSW 16.8 mph27.0 kmh 30.22 in1023.4 mb 0.00 in0.0 mm 0.00 in0.0 mm 0.00 in0.0 mm
08:50 PM 62.5°F16.9°C 47.9°F8.8°C 59% 11.2 mph W18.0 kmh W 15.7 mph25.3 kmh 30.22 in1023.4 mb 0.00 in0.0 mm 0.00 in0.0 mm 0.00 in0.0 mm
08:55 PM 62.3°F16.8°C 48.2°F9.0°C 60% 11.2 mph WSW18.0 kmh WSW 21.5 mph34.6 kmh 30.22 in1023.4 mb 0.00 in0.0 mm 0.00 in0.0 mm 0.00 in0.0 mm
09:00 PM 62.1°F16.7°C 48.0°F8.9°C 60% 11.2 mph WSW18.0 kmh WSW 20.4 mph32.8 kmh 30.22 in1023.4 mb 0.00 in0.0 mm 0.00 in0.0 mm 0.00 in0.0 mm
09:05 PM 62.1°F16.7°C 48.0°F8.9°C 60% 12.1 mph WSW19.5 kmh WSW 21.5 mph34.6 kmh 30.22 in1023.4 mb 0.00 in0.0 mm 0.00 in0.0 mm 0.00 in0.0 mm
09:10 PM 62.1°F16.7°C 48.0°F8.9°C 60% 14.5 mph WSW23.3 kmh WSW 22.4 mph36.0 kmh 30.22 in1023.4 mb 0.00 in0.0 mm 0.00 in0.0 mm 0.00 in0.0 mm
09:15 PM 62.1°F16.7°C 48.0°F8.9°C 60% 14.3 mph WSW23.0 kmh WSW 20.1 mph32.3 kmh 30.22 in1023.4 mb 0.00 in0.0 mm 0.00 in0.0 mm 0.00 in0.0 mm
09:20 PM 62.1°F16.7°C 48.0°F8.9°C 60% 13.6 mph WSW21.9 kmh WSW 22.6 mph36.4 kmh 30.22 in1023.4 mb 0.00 in0.0 mm 0.00 in0.0 mm 0.00 in0.0 mm
09:25 PM 62.1°F16.7°C 48.0°F8.9°C 60% 13.6 mph WSW21.9 kmh WSW 23.0 mph37.0 kmh 30.22 in1023.4 mb 0.00 in0.0 mm 0.00 in0.0 mm 0.00 in0.0 mm
09:30 PM 62.0°F16.7°C 48.0°F8.9°C 60% 13.4 mph WSW21.6 kmh WSW 17.0 mph27.4 kmh 30.22 in1023.4 mb 0.00 in0.0 mm 0.00 in0.0 mm 0.00 in0.0 mm
09:35 PM 61.9°F16.6°C 47.8°F8.8°C 60% 13.3 mph WSW21.4 kmh WSW 19.0 mph30.6 kmh 30.22 in1023.4 mb 0.00 in0.0 mm 0.00 in0.0 mm 0.00 in0.0 mm
09:40 PM 61.8°F16.6°C 47.7°F8.7°C 60% 13.0 mph WSW20.9 kmh WSW 20.1 mph32.3 kmh 30.22 in1023.4 mb 0.00 in0.0 mm 0.00 in0.0 mm 0.00 in0.0 mm
09:45 PM 61.9°F16.6°C 47.8°F8.8°C 60% 13.4 mph WSW21.6 kmh WSW 21.3 mph34.3 kmh 30.21 in1023.0 mb 0.00 in0.0 mm 0.00 in0.0 mm 0.00 in0.0 mm
09:50 PM 61.9°F16.6°C 47.8°F8.8°C 60% 14.5 mph WSW23.3 kmh WSW 19.2 mph30.9 kmh 30.21 in1023.0 mb 0.00 in0.0 mm 0.00 in0.0 mm 0.00 in0.0 mm
09:55 PM 61.9°F16.6°C 47.9°F8.8°C 60% 14.1 mph WSW22.7 kmh WSW 17.4 mph28.0 kmh 30.21 in1023.0 mb 0.00 in0.0 mm 0.00 in0.0 mm 0.00 in0.0 mm
10:00 PM 62.1°F16.7°C 48.0°F8.9°C 60% 13.0 mph WSW20.9 kmh WSW 16.8 mph27.0 kmh 30.21 in1023.0 mb 0.00 in0.0 mm 0.00 in0.0 mm 0.00 in0.0 mm
10:05 PM 61.9°F16.6°C 47.9°F8.8°C 60% 12.4 mph WSW20.0 kmh WSW 17.9 mph28.8 kmh 30.21 in1023.0 mb 0.00 in0.0 mm 0.00 in0.0 mm 0.00 in0.0 mm
10:10 PM 61.7°F16.5°C 47.7°F8.7°C 60% 10.7 mph WSW17.2 kmh WSW 15.2 mph24.5 kmh 30.21 in1023.0 mb 0.00 in0.0 mm 0.00 in0.0 mm 0.00 in0.0 mm
10:15 PM 61.5°F16.4°C 47.5°F8.6°C 60% 10.1 mph WSW16.3 kmh WSW 14.1 mph22.7 kmh 30.21 in1023.0 mb 0.00 in0.0 mm 0.00 in0.0 mm 0.00 in0.0 mm
10:20 PM 61.4°F16.3°C 47.6°F8.7°C 61% 8.5 mph W13.7 kmh W 14.8 mph23.8 kmh 30.21 in1023.0 mb 0.00 in0.0 mm 0.00 in0.0 mm 0.00 in0.0 mm
10:25 PM 61.3°F16.3°C 47.7°F8.7°C 61% 8.7 mph W14.0 kmh W 15.7 mph25.3 kmh 30.21 in1023.0 mb 0.00 in0.0 mm 0.00 in0.0 mm 0.00 in0.0 mm
10:30 PM 61.2°F16.2°C 47.6°F8.7°C 61% 9.2 mph W14.8 kmh W 17.0 mph27.4 kmh 30.21 in1023.0 mb 0.00 in0.0 mm 0.00 in0.0 mm 0.00 in0.0 mm
10:35 PM 61.2°F16.2°C 47.6°F8.7°C 61% 9.4 mph W15.1 kmh W 16.3 mph26.2 kmh 30.21 in1023.0 mb 0.00 in0.0 mm 0.00 in0.0 mm 0.00 in0.0 mm
10:40 PM 61.2°F16.2°C 47.6°F8.7°C 61% 10.1 mph W16.3 kmh W 15.7 mph25.3 kmh 30.21 in1023.0 mb 0.00 in0.0 mm 0.00 in0.0 mm 0.00 in0.0 mm
10:45 PM 61.2°F16.2°C 47.7°F8.7°C 61% 9.7 mph W15.6 kmh W 14.8 mph23.8 kmh 30.21 in1023.0 mb 0.00 in0.0 mm 0.00 in0.0 mm 0.00 in0.0 mm
10:50 PM 61.2°F16.2°C 47.6°F8.7°C 61% 8.7 mph WSW14.0 kmh WSW 14.1 mph22.7 kmh 30.21 in1023.0 mb 0.00 in0.0 mm 0.00 in0.0 mm 0.00 in0.0 mm
10:55 PM 61.2°F16.2°C 47.6°F8.7°C 61% 8.7 mph WSW14.0 kmh WSW 14.5 mph23.3 kmh 30.21 in1023.0 mb 0.00 in0.0 mm 0.00 in0.0 mm 0.00 in0.0 mm
11:00 PM 61.1°F16.2°C 47.5°F8.6°C 61% 8.5 mph W13.7 kmh W 13.4 mph21.6 kmh 30.21 in1023.0 mb 0.00 in0.0 mm 0.00 in0.0 mm 0.00 in0.0 mm
11:05 PM 61.0°F16.1°C 47.4°F8.6°C 61% 8.8 mph WSW14.2 kmh WSW 12.3 mph19.8 kmh 30.21 in1023.0 mb 0.00 in0.0 mm 0.00 in0.0 mm 0.00 in0.0 mm
11:10 PM 60.8°F16.0°C 47.4°F8.6°C 61% 9.6 mph WSW15.4 kmh WSW 14.5 mph23.3 kmh 30.21 in1023.0 mb 0.00 in0.0 mm 0.00 in0.0 mm 0.00 in0.0 mm
11:15 PM 60.6°F15.9°C 47.5°F8.6°C 62% 9.3 mph WSW15.0 kmh WSW 13.4 mph21.6 kmh 30.21 in1023.0 mb 0.00 in0.0 mm 0.00 in0.0 mm 0.00 in0.0 mm
11:20 PM 60.5°F15.8°C 47.4°F8.6°C 62% 8.5 mph WSW13.7 kmh WSW 11.4 mph18.3 kmh 30.21 in1023.0 mb 0.00 in0.0 mm 0.00 in0.0 mm 0.00 in0.0 mm
11:25 PM 60.3°F15.7°C 47.4°F8.6°C 62% 8.3 mph WSW13.4 kmh WSW 10.1 mph16.3 kmh 30.21 in1023.0 mb 0.00 in0.0 mm 0.00 in0.0 mm 0.00 in0.0 mm
11:30 PM 60.1°F15.6°C 47.4°F8.6°C 63% 7.6 mph WSW12.2 kmh WSW 10.3 mph16.6 kmh 30.21 in1023.0 mb 0.00 in0.0 mm 0.00 in0.0 mm 0.00 in0.0 mm
11:35 PM 59.8°F15.4°C 47.2°F8.4°C 63% 7.4 mph SW11.9 kmh SW 8.5 mph13.7 kmh 30.21 in1023.0 mb 0.00 in0.0 mm 0.00 in0.0 mm 0.00 in0.0 mm
11:40 PM 59.7°F15.4°C 47.5°F8.6°C 64% 6.9 mph SW11.1 kmh SW 8.7 mph14.0 kmh 30.21 in1023.0 mb 0.00 in0.0 mm 0.00 in0.0 mm 0.00 in0.0 mm
11:45 PM 59.6°F15.3°C 47.4°F8.6°C 64% 6.8 mph SW10.9 kmh SW 9.2 mph14.8 kmh 30.21 in1023.0 mb 0.00 in0.0 mm 0.00 in0.0 mm 0.00 in0.0 mm
11:50 PM 59.5°F15.3°C 47.3°F8.5°C 64% 6.5 mph SW10.5 kmh SW 6.5 mph10.5 kmh 30.21 in1023.0 mb 0.00 in0.0 mm 0.00 in0.0 mm 0.00 in0.0 mm
11:55 PM 59.5°F15.3°C 47.3°F8.5°C 64% 5.9 mph SW9.5 kmh SW 6.9 mph11.1 kmh 30.21 in1023.0 mb 0.00 in0.0 mm 0.00 in0.0 mm 0.00 in0.0 mm